createdAt,value
2018-11-05T00:04:07.116Z,7.03
2018-11-05T00:09:12.965Z,7.63
2018-11-05T00:14:17.805Z,6.70
2018-11-05T00:19:22.788Z,6.57
2018-11-05T00:24:27.753Z,6.73
2018-11-05T00:29:32.684Z,6.10
2018-11-05T00:34:37.594Z,6.43
2018-11-05T00:39:42.614Z,6.73
2018-11-05T00:44:47.669Z,7.27
2018-11-05T00:49:52.568Z,6.20
2018-11-05T00:54:57.497Z,6.07
2018-11-05T01:00:02.471Z,6.73
2018-11-05T01:05:08.817Z,6.33
2018-11-05T01:10:14.822Z,6.53
2018-11-05T01:15:19.735Z,6.07
2018-11-05T01:20:24.730Z,5.73
2018-11-05T01:25:29.711Z,6.00
2018-11-05T01:30:34.648Z,6.03
2018-11-05T01:35:39.676Z,5.67
2018-11-05T01:40:44.692Z,6.20
2018-11-05T01:45:49.504Z,6.80
2018-11-05T01:50:54.472Z,6.93
2018-11-05T01:55:59.303Z,6.83
2018-11-05T02:01:04.217Z,5.97
2018-11-05T02:06:09.214Z,5.43
2018-11-05T02:11:14.218Z,5.30
2018-11-05T02:16:19.117Z,5.80
2018-11-05T02:21:24.129Z,4.80
2018-11-05T02:26:29.099Z,4.87
2018-11-05T02:31:33.941Z,4.63
2018-11-05T02:36:38.930Z,4.70
2018-11-05T02:41:44.204Z,4.20
2018-11-05T02:46:49.094Z,4.03
2018-11-05T02:51:54.080Z,3.80
2018-11-05T02:56:59.005Z,4.50
2018-11-05T03:02:04.074Z,3.73
2018-11-05T03:07:09.102Z,4.27
2018-11-05T03:12:14.228Z,4.33
2018-11-05T03:17:19.165Z,4.50
2018-11-05T03:22:24.100Z,4.87
2018-11-05T03:27:29.041Z,4.60
2018-11-05T03:32:33.876Z,4.10
2018-11-05T03:37:39.270Z,4.97
2018-11-05T03:42:44.803Z,4.67
2018-11-05T03:47:49.647Z,5.40
2018-11-05T03:52:54.676Z,5.43
2018-11-05T03:57:59.534Z,5.27
2018-11-05T04:03:04.403Z,5.80
2018-11-05T04:08:09.365Z,5.43
2018-11-05T04:13:14.357Z,5.83
2018-11-05T04:18:19.445Z,7.03
2018-11-05T04:23:24.439Z,6.70
2018-11-05T04:28:29.284Z,6.70
2018-11-05T04:33:34.635Z,7.27
2018-11-05T04:38:39.591Z,6.50
2018-11-05T04:43:44.584Z,7.80
2018-11-05T04:48:49.626Z,6.97
2018-11-05T04:53:54.706Z,7.50
2018-11-05T04:58:59.752Z,6.70
2018-11-05T05:04:04.793Z,6.47
2018-11-05T05:09:11.645Z,7.20
2018-11-05T05:14:16.709Z,7.40
2018-11-05T05:19:21.691Z,7.43
2018-11-05T05:24:26.941Z,7.50
2018-11-05T05:29:31.865Z,8.13
2018-11-05T05:34:36.812Z,9.00
2018-11-05T05:39:41.946Z,10.20
2018-11-05T05:44:46.979Z,9.10
2018-11-05T05:49:51.869Z,8.93
2018-11-05T05:54:56.744Z,8.97
2018-11-05T06:00:01.766Z,9.17
2018-11-05T06:05:07.764Z,8.30
2018-11-05T06:10:14.164Z,8.30
2018-11-05T06:15:19.133Z,8.80
2018-11-05T06:20:24.095Z,9.33
2018-11-05T06:25:29.133Z,10.03
2018-11-05T06:30:34.065Z,10.23
2018-11-05T06:35:39.363Z,10.60
2018-11-05T06:40:44.288Z,11.37
2018-11-05T06:45:49.245Z,11.67
2018-11-05T06:50:54.285Z,11.73
2018-11-05T06:55:59.267Z,11.20
2018-11-05T07:01:04.858Z,13.53
2018-11-05T07:06:10.162Z,11.20
2018-11-05T07:11:15.157Z,11.30
2018-11-05T07:16:20.120Z,11.70
2018-11-05T07:21:25.153Z,11.63
2018-11-05T07:26:30.315Z,12.70
2018-11-05T07:31:35.196Z,12.07
2018-11-05T07:36:40.109Z,9.40
2018-11-05T07:41:45.596Z,10.70
2018-11-05T07:46:50.497Z,11.07
2018-11-05T07:51:55.756Z,10.83
2018-11-05T07:57:00.651Z,29.60
2018-11-05T08:02:06.081Z,11.00
2018-11-05T08:07:11.122Z,12.87
2018-11-05T08:12:16.090Z,8.97
2018-11-05T08:17:21.263Z,9.67
2018-11-05T08:22:26.430Z,10.77
2018-11-05T08:27:31.364Z,8.20
2018-11-05T08:32:36.236Z,7.50
2018-11-05T08:37:42.124Z,7.43
2018-11-05T08:42:47.976Z,7.10
2018-11-05T08:47:53.204Z,4.93
2018-11-05T08:52:58.109Z,5.40
2018-11-05T08:58:03.098Z,4.80
2018-11-05T09:03:08.128Z,5.03
2018-11-05T09:08:13.193Z,4.90
2018-11-05T09:13:18.406Z,3.10
2018-11-05T09:18:23.411Z,2.20
2018-11-05T09:23:28.250Z,2.20
2018-11-05T09:28:33.437Z,2.20
2018-11-05T09:33:38.389Z,2.50
2018-11-05T09:38:43.280Z,1.33
2018-11-05T09:43:48.200Z,2.33
2018-11-05T09:48:53.362Z,2.50
2018-11-05T09:53:58.296Z,1.90
2018-11-05T09:59:03.264Z,1.70
2018-11-05T10:04:08.216Z,1.80
2018-11-05T10:09:13.405Z,1.70
2018-11-05T10:14:18.416Z,2.63
2018-11-05T10:19:23.526Z,3.40
2018-11-05T10:24:28.569Z,1.90
2018-11-05T10:29:33.554Z,2.60
2018-11-05T10:34:38.372Z,1.93
2018-11-05T10:39:43.298Z,1.57
2018-11-05T10:44:48.236Z,1.40
2018-11-05T10:49:53.267Z,5.93
2018-11-05T10:54:58.159Z,5.97
2018-11-05T11:00:03.060Z,2.07
2018-11-05T11:05:08.543Z,3.60
2018-11-05T11:10:13.589Z,2.47
2018-11-05T11:15:18.464Z,5.40
2018-11-05T11:20:23.333Z,3.90
2018-11-05T11:25:28.349Z,4.00
2018-11-05T11:30:33.453Z,2.73
2018-11-05T11:35:38.326Z,3.07
2018-11-05T11:40:43.435Z,3.20
2018-11-05T11:45:48.672Z,2.90
2018-11-05T11:50:53.656Z,2.50
2018-11-05T11:55:58.692Z,3.70
2018-11-05T12:01:03.694Z,3.60
2018-11-05T12:06:08.405Z,4.10
2018-11-05T12:11:13.392Z,2.70
2018-11-05T12:16:18.351Z,2.83
2018-11-05T12:21:23.412Z,2.87
2018-11-05T12:26:28.444Z,3.10
2018-11-05T12:31:33.644Z,2.90
2018-11-05T12:36:38.520Z,2.90
2018-11-05T12:41:43.540Z,3.30
2018-11-05T12:46:48.684Z,2.47
2018-11-05T12:51:53.632Z,2.50
2018-11-05T12:56:58.673Z,3.17
2018-11-05T13:02:03.696Z,2.93
2018-11-05T13:07:08.619Z,3.17
2018-11-05T13:12:20.296Z,3.90
2018-11-05T13:17:25.366Z,2.70
2018-11-05T13:22:30.244Z,3.30
2018-11-05T13:27:35.141Z,3.23
2018-11-05T13:32:40.615Z,2.87
2018-11-05T13:37:46.036Z,3.00
2018-11-05T13:42:51.019Z,3.27
2018-11-05T13:47:56.720Z,3.30
2018-11-05T13:53:00.891Z,3.10
2018-11-05T13:58:06.211Z,2.93
2018-11-05T14:03:11.100Z,3.13
2018-11-05T14:08:16.065Z,2.63
2018-11-05T14:13:21.327Z,3.60
2018-11-05T14:18:26.395Z,3.13
2018-11-05T14:23:31.313Z,5.63
2018-11-05T14:28:36.675Z,3.10
2018-11-05T14:33:41.499Z,3.37
2018-11-05T14:38:46.433Z,2.93
2018-11-05T14:43:51.412Z,3.33
2018-11-05T14:48:56.323Z,2.90
2018-11-05T14:54:01.180Z,3.30
2018-11-05T14:59:06.796Z,3.10
2018-11-05T15:04:11.782Z,2.97
2018-11-05T15:09:16.742Z,2.87
2018-11-05T15:14:21.693Z,4.60
2018-11-05T15:19:27.182Z,3.67
2018-11-05T15:24:31.859Z,2.70
2018-11-05T15:29:36.883Z,3.63
2018-11-05T15:34:41.855Z,3.37
2018-11-05T15:39:46.916Z,7.70
2018-11-05T15:44:51.765Z,2.80
2018-11-05T15:49:56.776Z,3.10
2018-11-05T15:55:01.616Z,2.87
2018-11-05T16:00:26.888Z,2.70
2018-11-05T16:05:31.912Z,3.13
2018-11-05T16:10:36.948Z,3.87
2018-11-05T16:15:41.822Z,2.50
2018-11-05T16:20:46.784Z,4.30
2018-11-05T16:25:51.849Z,3.90
2018-11-05T16:30:56.816Z,2.90
2018-11-05T16:36:01.873Z,3.63
2018-11-05T16:41:06.952Z,3.43
2018-11-05T16:46:11.771Z,3.23
2018-11-05T16:51:16.806Z,4.97
2018-11-05T16:56:21.737Z,3.00
2018-11-05T17:01:27.160Z,3.13
2018-11-05T17:06:31.754Z,3.60
2018-11-05T17:11:36.687Z,3.63
2018-11-05T17:16:41.628Z,2.83
2018-11-05T17:21:46.521Z,3.47
2018-11-05T17:26:51.392Z,4.70
2018-11-05T17:31:56.413Z,5.50
2018-11-05T17:37:01.490Z,5.23
2018-11-05T17:42:06.573Z,7.13
2018-11-05T17:47:11.609Z,7.17
2018-11-05T17:52:16.856Z,14.23
2018-11-05T17:57:21.706Z,9.43
2018-11-05T18:02:26.753Z,12.43
2018-11-05T18:07:31.597Z,9.80
2018-11-05T18:12:36.634Z,10.00
2018-11-05T18:17:42.323Z,14.90
2018-11-05T18:22:47.384Z,12.57
2018-11-05T18:27:52.300Z,18.60
2018-11-05T18:32:57.184Z,20.67
2018-11-05T18:38:02.145Z,13.93
2018-11-05T18:43:07.314Z,18.73
2018-11-05T18:48:12.284Z,16.30
2018-11-05T18:53:17.457Z,12.73
2018-11-05T18:58:23.299Z,7.73
2018-11-05T19:03:28.299Z,6.77
2018-11-05T19:08:33.328Z,5.67
2018-11-05T19:13:38.212Z,5.73
2018-11-05T19:18:43.706Z,4.63
2018-11-05T19:23:49.233Z,7.07
2018-11-05T19:28:56.012Z,6.87
2018-11-05T19:34:01.035Z,6.27
2018-11-05T19:39:11.395Z,15.23
2018-11-05T19:44:16.447Z,4.77
2018-11-05T19:49:21.602Z,5.77
2018-11-05T19:54:26.644Z,7.20
2018-11-05T19:59:31.688Z,6.07
2018-11-05T20:04:36.710Z,7.33
2018-11-05T20:09:41.761Z,7.10
2018-11-05T20:14:47.074Z,7.13
2018-11-05T20:19:51.945Z,6.47
2018-11-05T20:24:56.937Z,5.97
2018-11-05T20:30:01.859Z,5.63
2018-11-05T20:35:07.473Z,5.00
2018-11-05T20:40:13.825Z,4.80
2018-11-05T20:45:19.649Z,4.27
2018-11-05T20:50:24.565Z,4.37
2018-11-05T20:55:29.483Z,5.00
2018-11-05T21:00:34.404Z,9.80
2018-11-05T21:05:39.412Z,5.60
2018-11-05T21:10:44.359Z,4.83
2018-11-05T21:15:49.223Z,5.23
2018-11-05T21:20:54.203Z,4.93
2018-11-05T21:25:59.188Z,6.40
2018-11-05T21:31:04.077Z,7.20
2018-11-05T21:36:08.933Z,6.33
2018-11-05T21:41:13.815Z,3.43
2018-11-05T21:46:18.702Z,3.90
2018-11-05T21:51:24.202Z,3.47
2018-11-05T21:56:29.456Z,3.80
2018-11-05T22:01:34.513Z,4.47
2018-11-05T22:06:39.494Z,3.27
2018-11-05T22:11:44.539Z,3.30
2018-11-05T22:16:49.544Z,3.50
2018-11-05T22:21:54.402Z,2.20
2018-11-05T22:26:59.254Z,3.63
2018-11-05T22:32:04.495Z,3.73
2018-11-05T22:37:09.506Z,5.27
2018-11-05T22:42:14.556Z,4.13
2018-11-05T22:47:19.665Z,4.70
2018-11-05T22:52:24.680Z,5.27
2018-11-05T22:57:29.531Z,5.90
2018-11-05T23:02:34.925Z,5.33
2018-11-05T23:07:39.964Z,4.43
2018-11-05T23:12:44.918Z,4.27
2018-11-05T23:17:50.441Z,5.03
2018-11-05T23:22:55.429Z,5.40
2018-11-05T23:28:00.429Z,4.23
2018-11-05T23:33:05.342Z,3.37
2018-11-05T23:38:10.224Z,4.83
2018-11-05T23:43:15.424Z,4.17
2018-11-05T23:48:20.448Z,3.50
2018-11-05T23:53:25.461Z,3.53
2018-11-05T23:58:30.308Z,3.37
